D/T METAR WX W/DIR W/SPE G/SPE TEMP DEWP
9/12/19 12:20 EGPI 091220Z 31014KT 9999 FEW030 08/02 Q1016 NW (310°) 16.1mph 8°C 2°C
9/12/19 11:50 EGPI 091150Z 31013KT 9999 FEW030 07/02 Q1015 NW (310°) 15.0mph 7°C 2°C
9/12/19 11:20 EGPI 091120Z 32010KT 9999 FEW035 07/03 Q1015 NW (320°) 11.5mph 7°C 3°C
9/12/19 10:20 EGPI 091020Z AUTO 33010KT 9999 FEW035/// 06/03 Q1014 NNW (330°) 11.5mph 6°C 3°C
9/12/19 09:50 EGPI 090950Z 34011KT 9999 FEW036 05/02 Q1014 NNW (340°) 12.7mph 5°C 2°C
9/12/19 08:50 EGPI 090850Z 33013KT 9999 FEW032 05/02 Q1012 NNW (330°) 15.0mph 5°C 2°C
9/12/19 08:20 EGPI 090820Z 34015KT 9999 FEW033 SCT048 05/02 Q1011 NNW (340°) 17.3mph 5°C 2°C
9/12/19 07:50 EGPI 090750Z 32020KT 9999 FEW034 BKN045 06/03 Q1010 NW (320°) 23.0mph 6°C 3°C
9/12/19 07:20 EGPI 090720Z AUTO 33019KT 9999 NCD 06/02 Q1009 NNW (330°) 21.9mph 6°C 2°C
9/12/19 06:50 EGPI 090650Z AUTO 33021KT 9999 FEW042/// 06/02 Q1008 NNW (330°) 24.2mph 6°C 2°C
9/12/19 06:20 EGPI 090620Z AUTO 32019KT 9999 FEW036/// 07/03 Q1007 NW (320°) 21.9mph 7°C 3°C
9/12/19 05:50 EGPI 090550Z AUTO 33021KT 9999 NCD 07/02 Q1006 NNW (330°) 24.2mph 7°C 2°C
9/12/19 05:20 EGPI 090520Z AUTO 33020KT 9999 FEW034/// BKN045/// 07/02 Q1005 NNW (330°) 23.0mph 7°C 2°C
9/12/19 04:50 EGPI 090450Z AUTO 33022KT 9999 NCD 07/03 Q1003 NNW (330°) 25.3mph 7°C 3°C
9/12/19 04:20 EGPI 090420Z AUTO 33022KT 9999 FEW033/// 07/03 Q1002 NNW (330°) 25.3mph 7°C 3°C
9/12/19 03:50 EGPI 090350Z AUTO 33022KT 9999 FEW031/// 07/03 Q1001 RERA NNW (330°) 25.3mph 7°C 3°C
9/12/19 03:20 EGPI 090320Z AUTO 33025KT 9999 SCT027/// 07/04 Q1000 RERA NNW (330°) 28.8mph 7°C 4°C
9/12/19 02:50 EGPI 090250Z AUTO 33023KT 300V360 9999 -RA FEW030/// SCT038/// 07/05 Q0999 -RA NNW (330°) 26.5mph 7°C 5°C
9/12/19 02:20 EGPI 090220Z AUTO 34023G33KT 310V010 9999 FEW036/// SCT042/// 07/04 Q0997 RERA NNW (340°) 26.5mph 38.0mph 7°C 4°C
9/12/19 01:50 EGPI 090150Z AUTO 34026G37KT 310V010 9999 SCT027/// SCT037/// 07/04 Q0996 RERA NNW (340°) 29.9mph 42.6mph 7°C 4°C
9/12/19 01:20 EGPI 090120Z AUTO 33018KT 9999 SCT027/// 06/04 Q0994 RERA NNW (330°) 20.7mph 6°C 4°C
9/12/19 00:50 EGPI 090050Z AUTO 33024KT 300V010 9999 FEW027/// BKN044/// 08/04 Q0992 NNW (330°) 27.6mph 8°C 4°C
9/12/19 00:20 EGPI 090020Z AUTO 33024KT 9999 SCT027/// 07/05 Q0990 NNW (330°) 27.6mph 7°C 5°C
8/12/19 23:50 EGPI 082350Z AUTO 34021KT 9999 FEW028/// 07/05 Q0988 NNW (340°) 24.2mph 7°C 5°C
8/12/19 23:20 EGPI 082320Z AUTO 34017KT 310V010 9999 FEW024/// SCT033/// 07/05 Q0986 RERA NNW (340°) 19.6mph 7°C 5°C
8/12/19 22:50 EGPI 082250Z AUTO 35010KT 9999 FEW024/// 05/04 Q0985 RERA N (350°) 11.5mph 5°C 4°C
8/12/19 22:20 EGPI 082220Z AUTO 35009KT 9999 -RA SCT030/// 06/05 Q0983 -RA N (350°) 10.4mph 6°C 5°C
8/12/19 21:50 EGPI 082150Z AUTO 33014KT 300V010 7000 RA SCT027/// BKN034/// 06/05 Q0981 RA NNW (330°) 16.1mph 6°C 5°C
8/12/19 21:20 EGPI 082120Z AUTO 28011KT 9999 FEW018/// SCT039/// 07/05 Q0979 RERA W (280°) 12.7mph 7°C 5°C
8/12/19 20:50 EGPI 082050Z AUTO 27015KT 8000 FEW031/// SCT039/// 08/06 Q0978 RERA W (270°) 17.3mph 8°C 6°C
8/12/19 20:20 EGPI 082020Z AUTO 26017KT 220V290 9999 -RA FEW021/// BKN033/// 08/06 Q0978 -RA W (260°) 19.6mph 8°C 6°C
8/12/19 19:50 EGPI 081950Z AUTO 27016KT 8000 -RA FEW025/// SCT044/// 08/06 Q0978 -RA W (270°) 18.4mph 8°C 6°C
8/12/19 19:20 EGPI 081920Z AUTO 27024KT 240V300 6000 RA BKN024/// 07/04 Q0978 RA W (270°) 27.6mph 7°C 4°C
8/12/19 18:50 EGPI 081850Z AUTO 26018KT 9999 FEW038/// 08/06 Q0978 RERA W (260°) 20.7mph 8°C 6°C
8/12/19 18:20 EGPI 081820Z AUTO 27022KT 6000 -RA FEW026/// SCT032/// 07/05 Q0978 -RA W (270°) 25.3mph 7°C 5°C
8/12/19 17:50 EGPI 081750Z AUTO 26025KT 9999 FEW025/// SCT032/// 08/05 Q0978 RERA W (260°) 28.8mph 8°C 5°C
8/12/19 17:20 EGPI 081720Z AUTO 27025KT 240V300 9999 SCT022/// 08/05 Q0978 RERA W (270°) 28.8mph 8°C 5°C
8/12/19 16:50 EGPI 081650Z AUTO 26024KT 9999 SCT021/// 08/05 Q0978 RERA W (260°) 27.6mph 8°C 5°C
8/12/19 16:20 EGPI 081620Z AUTO 26026KT 230V290 9999 -RA FEW024/// BKN033/// 07/05 Q0978 -RA W (260°) 29.9mph 7°C 5°C
8/12/19 15:50 EGPI 081550Z 26026KT 9999 VCTS SCT021CB SCT044 07/07 Q0978 RESHGS VCTS W (260°) 29.9mph 7°C 7°C
8/12/19 15:20 EGPI 081520Z 24026G36KT 210V270 8000 VCSH FEW012 FEW022CB BKN030 06/06 Q0978 RESHGS VCSH WSW (240°) 29.9mph 41.4mph 6°C 6°C
8/12/19 14:50 EGPI 081450Z 24027G38KT 200V270 9000 -SHRA FEW020CB BKN024 08/06 Q0978 -SHRA WSW (240°) 31.1mph 43.7mph 8°C 6°C
8/12/19 14:20 EGPI 081420Z 25037G53KT 9000 4000SE SHRAGS FEW018CB BKN024 06/05 Q0979 RESHGS SHRA GS WSW (250°) 42.6mph 61.0mph 6°C 5°C
8/12/19 13:50 EGPI 081350Z 24030G40KT 200V260 9000 VCSH SCT018 FEW020CB BKN042 08/07 Q0980 VCSH WSW (240°) 34.5mph 46.0mph 8°C 7°C
8/12/19 13:20 EGPI 081320Z 24026KT 210V270 9999 -SHRA FEW020CB SCT024 08/06 Q0980 -SHRA WSW (240°) 29.9mph 8°C 6°C
8/12/19 12:50 EGPI 081250Z 23027KT 8000 VCSH BKN017 SCT041 07/06 Q0980 RETS VCSH SW (230°) 31.1mph 7°C 6°C
8/12/19 12:20 EGPI 081220Z 25024G34KT 210V290 8000 TS -SHRA FEW015CB BKN019 07/06 Q0981 RESHGS TS -SHRA WSW (250°) 27.6mph 39.1mph 7°C 6°C
8/12/19 11:50 EGPI 081150Z 22028G43KT 190V250 9999 -SHRA FEW020CB SCT031 07/04 Q0981 RESHRA RESHGS -SHRA SHGS SW (220°) 32.2mph 49.5mph 7°C 4°C